Port Star — 3EAS6 — position and weather

sailwx.info

Track history (hours):
 
Tides and Currents Weather Stations Pressure Air Temp Water Temp Dewpoint Dewpoint Depression Visibility Wind Speed Wind Dir Waves Ship Positions

Port Star

Last reported at 2016-May-23 15:22 UTC. Time now 2016-Jun-01 03:45 UTC.
Position S 24°25' W 046°10'.
Warning: this ship's position is 8 days out of date.

Length 175.5 m; beam 29.4 m.

Type: Ship. MMSI: 356105000.

Date/timePositionNaut miles runAvg speedWind from/ knotsBaromVisibWave heightAir tempDewpointWater temp
2016-May-23 15:22S 24°25' W 046°10'1012.2
2016-May-23 14:33S 24°18' W 046°17'1211.6
2016-May-23 13:33S 24°07' W 046°23'9 8.7
2016-May-23 12:33S 23°60' W 046°18'6 5.8
2016-May-23 11:32S 23°55' W 046°22'0 0.0
2016-May-21 13:09S 23°55' W 046°22'8 5.3
2016-May-21 11:33S 24°03' W 046°21'8 8.3
2016-May-21 10:33S 24°11' W 046°19'2 1.1
2016-May-21 08:30S 24°12' W 046°17'0 0.1
2016-May-21 07:24S 24°12' W 046°17'0 0.1
2016-May-21 06:33S 24°12' W 046°17'0 0.0
2016-May-21 05:33S 24°12' W 046°17'0 0.0
2016-May-21 04:33S 24°12' W 046°17'0 0.1
2016-May-21 03:30S 24°12' W 046°17'0 0.0
2016-May-21 02:30S 24°12' W 046°17'0 0.0
2016-May-21 01:33S 24°12' W 046°17'0 0.0
2016-May-21 00:30S 24°12' W 046°17'0 0.0
2016-May-20 23:33S 24°12' W 046°17'0 0.0
2016-May-20 22:30S 24°12' W 046°17'0 0.0
2016-May-20 21:33S 24°12' W 046°17'0 0.0
2016-May-20 20:15S 24°12' W 046°17'0 0.0
2016-May-20 19:24S 24°12' W 046°17'0 0.0
2016-May-20 18:33S 24°12' W 046°17'0 0.0
2016-May-20 17:33S 24°12' W 046°17'0 0.1
2016-May-20 16:33S 24°12' W 046°17'0 0.1
2016-May-20 15:33S 24°12' W 046°17'0 0.0
2016-May-20 14:33S 24°12' W 046°17'0 0.0
2016-May-20 13:33S 24°12' W 046°17'0 0.0
2016-May-20 12:33S 24°12' W 046°17'0 0.0
2016-May-20 11:33S 24°12' W 046°17'0 0.0
2016-May-20 10:21S 24°12' W 046°17'0 0.0
2016-May-20 09:33S 24°12' W 046°17'0 0.0
2016-May-20 08:30S 24°12' W 046°17'0 0.0
2016-May-20 07:33S 24°12' W 046°17'0 0.1
2016-May-20 06:30S 24°12' W 046°17'0 0.0
2016-May-20 05:24S 24°12' W 046°17'0 0.0
2016-May-20 04:33S 24°12' W 046°17'0 0.0
2016-May-20 03:27S 24°12' W 046°17'0 0.0
2016-May-20 02:33S 24°12' W 046°17'0 0.0
2016-May-20 01:27S 24°12' W 046°17'0 0.0
2016-May-20 00:24S 24°12' W 046°17'0 0.0
2016-May-19 23:27S 24°12' W 046°17'0 0.0
2016-May-19 22:27S 24°12' W 046°17'0 0.0
2016-May-19 21:30S 24°12' W 046°17'0 0.0
2016-May-19 20:33S 24°12' W 046°17'0 0.0
2016-May-19 19:33S 24°12' W 046°17'0 0.0
2016-May-19 18:33S 24°12' W 046°17'0 0.0
2016-May-19 17:33S 24°12' W 046°17'0 0.0
2016-May-19 16:33S 24°12' W 046°17'1 0.6
2016-May-19 15:34S 24°12' W 046°17'10 9.8
2016-May-19 14:33S 24°22' W 046°14'1211.6
2016-May-19 13:33S 24°29' W 046°04'  
Track history (hours):
 
Tides and Currents Weather Stations Pressure Air Temp Water Temp Dewpoint Dewpoint Depression Visibility Wind Speed Wind Dir Waves Ship Positions

Port Star

Last reported at 2016-May-23 15:22 UTC. Time now 2016-Jun-01 03:45 UTC.
Position S 24°25' W 046°10'.
Warning: this ship's position is 8 days out of date.

Length 175.5 m; beam 29.4 m.

Type: Ship. MMSI: 356105000.

Date/timePositionNaut miles runAvg speedWind from/ knotsBaromVisibWave heightAir tempDewpointWater temp
2016-May-23 15:22S 24°25' W 046°10'1012.2
2016-May-23 14:33S 24°18' W 046°17'1211.6
2016-May-23 13:33S 24°07' W 046°23'9 8.7
2016-May-23 12:33S 23°60' W 046°18'6 5.8
2016-May-23 11:32S 23°55' W 046°22'0 0.0
2016-May-21 13:09S 23°55' W 046°22'8 5.3
2016-May-21 11:33S 24°03' W 046°21'8 8.3
2016-May-21 10:33S 24°11' W 046°19'2 1.1
2016-May-21 08:30S 24°12' W 046°17'0 0.1
2016-May-21 07:24S 24°12' W 046°17'0 0.1
2016-May-21 06:33S 24°12' W 046°17'0 0.0
2016-May-21 05:33S 24°12' W 046°17'0 0.0
2016-May-21 04:33S 24°12' W 046°17'0 0.1
2016-May-21 03:30S 24°12' W 046°17'0 0.0
2016-May-21 02:30S 24°12' W 046°17'0 0.0
2016-May-21 01:33S 24°12' W 046°17'0 0.0
2016-May-21 00:30S 24°12' W 046°17'0 0.0
2016-May-20 23:33S 24°12' W 046°17'0 0.0
2016-May-20 22:30S 24°12' W 046°17'0 0.0
2016-May-20 21:33S 24°12' W 046°17'0 0.0
2016-May-20 20:15S 24°12' W 046°17'0 0.0
2016-May-20 19:24S 24°12' W 046°17'0 0.0
2016-May-20 18:33S 24°12' W 046°17'0 0.0
2016-May-20 17:33S 24°12' W 046°17'0 0.1
2016-May-20 16:33S 24°12' W 046°17'0 0.1
2016-May-20 15:33S 24°12' W 046°17'0 0.0
2016-May-20 14:33S 24°12' W 046°17'0 0.0
2016-May-20 13:33S 24°12' W 046°17'0 0.0
2016-May-20 12:33S 24°12' W 046°17'0 0.0
2016-May-20 11:33S 24°12' W 046°17'0 0.0
2016-May-20 10:21S 24°12' W 046°17'0 0.0
2016-May-20 09:33S 24°12' W 046°17'0 0.0
2016-May-20 08:30S 24°12' W 046°17'0 0.0
2016-May-20 07:33S 24°12' W 046°17'0 0.1
2016-May-20 06:30S 24°12' W 046°17'0 0.0
2016-May-20 05:24S 24°12' W 046°17'0 0.0
2016-May-20 04:33S 24°12' W 046°17'0 0.0
2016-May-20 03:27S 24°12' W 046°17'0 0.0
2016-May-20 02:33S 24°12' W 046°17'0 0.0
2016-May-20 01:27S 24°12' W 046°17'0 0.0
2016-May-20 00:24S 24°12' W 046°17'0 0.0
2016-May-19 23:27S 24°12' W 046°17'0 0.0
2016-May-19 22:27S 24°12' W 046°17'0 0.0
2016-May-19 21:30S 24°12' W 046°17'0 0.0
2016-May-19 20:33S 24°12' W 046°17'0 0.0
2016-May-19 19:33S 24°12' W 046°17'0 0.0
2016-May-19 18:33S 24°12' W 046°17'0 0.0
2016-May-19 17:33S 24°12' W 046°17'0 0.0
2016-May-19 16:33S 24°12' W 046°17'1 0.6
2016-May-19 15:34S 24°12' W 046°17'10 9.8
2016-May-19 14:33S 24°22' W 046°14'1211.6
2016-May-19 13:33S 24°29' W 046°04'  

Dump ship's entire track history